Time;durP1;ratioP1;P1;durP2;ratioP2;P2;SDS_P1;SDS_P2;PMS_P1;PMS_P2;Temp;Humidity;BMP_temperature;BMP_pressure;BME280_temperature;BME280_humidity;BME280_pressure;Samples;Min_cycle;Max_cycle;Signal;HPM_P1;HPM_P2
2022/01/24 00:01:03;;;;;;;30.63;16.53;;;;;;;;;;5011079;28;20715;-86
2022/01/24 00:03:30;;;;;;;28.47;16.57;;;;;;;;;;5011480;28;20213;-86
2022/01/24 00:05:57;;;;;;;24.97;13.37;;;;;;;;;;5011122;28;20224;-86
2022/01/24 00:08:24;;;;;;;27.23;14.93;;;;;;;;;;5011076;28;20292;-86
2022/01/24 00:10:53;;;;;;;24.50;14.50;;;;;;;;;;5012010;28;20273;-86
2022/01/24 00:14:14;;;;;;;25.27;13.73;;;;;;;;;;5010768;28;20331;-86
2022/01/24 00:16:45;;;;;;;21.00;12.53;;;;;;;;;;5010835;28;20208;-85
2022/01/24 00:27:26;;;;;;;23.33;13.83;;;;;;;;;;5010687;28;20875;-86
2022/01/24 00:29:53;;;;;;;24.83;14.50;;;;;;;;;;5011189;28;20223;-86
2022/01/24 00:32:22;;;;;;;26.23;14.00;;;;;;;;;;5010567;28;20645;-86
2022/01/24 00:34:49;;;;;;;24.80;14.67;;;;;;;;;;5014057;28;20215;-85
2022/01/24 00:37:17;;;;;;;25.40;14.60;;;;;;;;;;5016212;28;20231;-87
2022/01/24 00:39:44;;;;;;;23.27;14.67;;;;;;;;;;5011971;28;21007;-86
2022/01/24 00:42:23;;;;;;;23.40;13.90;;;;;;;;;;5011749;28;20331;-86
2022/01/24 00:45:03;;;;;;;23.90;13.67;;;;;;;;;;5014405;28;20275;-86
2022/01/24 00:47:48;;;;;;;23.43;14.30;;;;;;;;;;5014857;28;20232;-86
2022/01/24 00:53:14;;;;;;;27.13;14.93;;;;;;;;;;5013705;28;20247;-86
2022/01/24 00:55:41;;;;;;;25.20;14.93;;;;;;;;;;5014533;28;20906;-86
2022/01/24 00:58:08;;;;;;;27.70;13.93;;;;;;;;;;5015111;28;20687;-86
2022/01/24 01:00:36;;;;;;;25.77;14.37;;;;;;;;;;5014317;28;20643;-86
2022/01/24 01:03:04;;;;;;;27.77;14.90;;;;;;;;;;5014420;28;20286;-86
2022/01/24 01:05:46;;;;;;;25.70;14.33;;;;;;;;;;5014531;28;20227;-86
2022/01/24 01:19:13;;;;;;;23.57;14.83;;;;;;;;;;4992670;28;20292;-86
2022/01/24 01:21:40;;;;;;;25.50;14.87;;;;;;;;;;4992498;28;20225;-85
2022/01/24 01:24:07;;;;;;;25.50;14.53;;;;;;;;;;4995669;28;20227;-86
2022/01/24 01:26:39;;;;;;;29.27;15.37;;;;;;;;;;4996495;28;20232;-86
2022/01/24 01:29:11;;;;;;;29.27;14.53;;;;;;;;;;4993042;28;20209;-86
2022/01/24 01:31:46;;;;;;;28.60;15.73;;;;;;;;;;4991930;28;20210;-86
2022/01/24 01:34:30;;;;;;;28.73;14.63;;;;;;;;;;4987164;28;20295;-86
2022/01/24 01:56:13;;;;;;;26.47;14.67;;;;;;;;;;4991208;28;20210;-86
2022/01/24 01:58:40;;;;;;;28.10;15.23;;;;;;;;;;4990310;28;20286;-85
2022/01/24 02:01:08;;;;;;;25.53;14.70;;;;;;;;;;4990133;28;20316;-86
2022/01/24 02:03:35;;;;;;;26.53;14.77;;;;;;;;;;4978971;28;20344;-85
2022/01/24 02:06:03;;;;;;;28.63;15.37;;;;;;;;;;4980944;28;20296;-85
2022/01/24 02:08:32;;;;;;;27.27;14.60;;;;;;;;;;4977965;28;20286;-85
2022/01/24 02:11:00;;;;;;;28.50;15.40;;;;;;;;;;4991616;28;20206;-86
2022/01/24 02:13:29;;;;;;;29.63;14.93;;;;;;;;;;4993258;28;20253;-87
2022/01/24 02:16:06;;;;;;;25.53;14.90;;;;;;;;;;4985564;28;20203;-86
2022/01/24 02:18:39;;;;;;;28.93;14.40;;;;;;;;;;4988997;28;20220;-85
2022/01/24 02:21:24;;;;;;;25.17;14.13;;;;;;;;;;5012791;28;20307;-85
2022/01/24 02:23:56;;;;;;;26.13;14.90;;;;;;;;;;5012685;28;20290;-85
2022/01/24 02:26:24;;;;;;;26.50;14.90;;;;;;;;;;5012429;28;20201;-85
2022/01/24 02:29:00;;;;;;;28.67;14.80;;;;;;;;;;5012858;28;20239;-85
2022/01/24 02:34:26;;;;;;;24.23;14.00;;;;;;;;;;4997449;28;20201;-85
2022/01/24 02:36:54;;;;;;;28.07;14.67;;;;;;;;;;5012341;28;20756;-86
2022/01/24 02:51:08;;;;;;;25.00;13.93;;;;;;;;;;4971586;28;20237;-85
2022/01/24 02:53:36;;;;;;;27.67;13.93;;;;;;;;;;4968441;28;20231;-85
2022/01/24 02:56:05;;;;;;;24.23;12.90;;;;;;;;;;4968653;28;20241;-85
2022/01/24 02:58:33;;;;;;;29.60;14.17;;;;;;;;;;4968836;28;20264;-85
2022/01/24 03:01:00;;;;;;;27.47;14.20;;;;;;;;;;4970389;28;20249;-85
2022/01/24 03:03:27;;;;;;;27.37;14.40;;;;;;;;;;4966245;28;20238;-85
2022/01/24 03:05:54;;;;;;;27.50;13.70;;;;;;;;;;4974395;28;20253;-85
2022/01/24 03:08:22;;;;;;;30.10;14.87;;;;;;;;;;4970108;28;20299;-85
2022/01/24 03:10:51;;;;;;;27.57;14.03;;;;;;;;;;4960984;28;20203;-85
2022/01/24 03:13:32;;;;;;;30.37;15.27;;;;;;;;;;4954572;28;20204;-85
2022/01/24 03:16:00;;;;;;;31.47;15.47;;;;;;;;;;4964128;28;20208;-85
2022/01/24 03:18:28;;;;;;;32.07;15.60;;;;;;;;;;4964635;28;20781;-85
2022/01/24 03:20:55;;;;;;;32.57;15.07;;;;;;;;;;4964922;28;20249;-85
2022/01/24 03:23:24;;;;;;;33.23;15.83;;;;;;;;;;5011575;28;20692;-85
2022/01/24 03:25:51;;;;;;;31.63;15.70;;;;;;;;;;5011797;28;20259;-85
2022/01/24 03:28:20;;;;;;;27.47;14.73;;;;;;;;;;5011878;28;20239;-85
2022/01/24 03:30:47;;;;;;;32.97;15.83;;;;;;;;;;5011596;28;20717;-85
2022/01/24 03:33:15;;;;;;;29.80;14.63;;;;;;;;;;5011777;28;20283;-85
2022/01/24 03:35:43;;;;;;;30.83;14.43;;;;;;;;;;5010779;28;20240;-86
2022/01/24 03:38:11;;;;;;;30.60;15.43;;;;;;;;;;5011097;28;20209;-87
2022/01/24 03:40:38;;;;;;;29.20;13.83;;;;;;;;;;5011790;28;20319;-86
2022/01/24 03:43:05;;;;;;;28.20;14.90;;;;;;;;;;5011682;28;20220;-85
2022/01/24 03:45:43;;;;;;;27.37;13.77;;;;;;;;;;5011763;28;20294;-85
2022/01/24 03:48:22;;;;;;;29.47;14.30;;;;;;;;;;5011642;28;20204;-85
2022/01/24 03:50:50;;;;;;;28.33;14.13;;;;;;;;;;5011639;28;20259;-85
2022/01/24 03:53:17;;;;;;;27.23;14.37;;;;;;;;;;5012509;28;20228;-85
2022/01/24 03:55:44;;;;;;;28.53;14.33;;;;;;;;;;5016030;28;20303;-85
2022/01/24 03:58:11;;;;;;;32.00;15.63;;;;;;;;;;5013611;28;20251;-85
2022/01/24 04:00:41;;;;;;;29.83;14.70;;;;;;;;;;5011219;28;20312;-85
2022/01/24 04:03:08;;;;;;;31.77;14.23;;;;;;;;;;5010476;28;20198;-85
2022/01/24 04:05:35;;;;;;;32.93;15.77;;;;;;;;;;5010392;28;20227;-85
2022/01/24 04:08:03;;;;;;;31.57;15.43;;;;;;;;;;5010757;28;20232;-85
2022/01/24 04:10:39;;;;;;;33.90;15.60;;;;;;;;;;5011170;28;20205;-85
2022/01/24 04:13:19;;;;;;;30.17;14.90;;;;;;;;;;5011779;28;20600;-85
2022/01/24 04:15:59;;;;;;;37.60;16.50;;;;;;;;;;5010767;28;20706;-84
2022/01/24 04:18:37;;;;;;;32.43;15.90;;;;;;;;;;5010156;28;20287;-85
2022/01/24 04:21:26;;;;;;;35.50;16.10;;;;;;;;;;5010054;28;20224;-85
2022/01/24 04:23:56;;;;;;;35.87;16.23;;;;;;;;;;5010981;28;20197;-85
2022/01/24 04:26:23;;;;;;;39.27;17.20;;;;;;;;;;5009819;28;20205;-85
2022/01/24 04:28:50;;;;;;;39.77;17.70;;;;;;;;;;5010648;28;20300;-85
2022/01/24 04:31:20;;;;;;;39.90;16.97;;;;;;;;;;5011209;28;20200;-85
2022/01/24 04:33:47;;;;;;;37.97;16.90;;;;;;;;;;5010647;28;20275;-85
2022/01/24 04:36:15;;;;;;;35.80;17.37;;;;;;;;;;5010712;28;20288;-85
2022/01/24 04:38:42;;;;;;;40.97;17.57;;;;;;;;;;5011141;28;20196;-85
2022/01/24 04:41:19;;;;;;;38.87;17.63;;;;;;;;;;5011277;28;20305;-85
2022/01/24 04:43:53;;;;;;;36.47;15.87;;;;;;;;;;5011035;28;20228;-85
2022/01/24 04:46:45;;;;;;;36.97;16.77;;;;;;;;;;5013725;28;20208;-85
2022/01/24 04:52:14;;;;;;;36.53;16.33;;;;;;;;;;5003557;28;20586;-85
2022/01/24 04:54:42;;;;;;;37.97;16.13;;;;;;;;;;5010979;28;20622;-86
2022/01/24 04:57:10;;;;;;;36.90;16.77;;;;;;;;;;5011054;28;20207;-86
2022/01/24 04:59:38;;;;;;;38.63;16.93;;;;;;;;;;5010888;28;20214;-85
2022/01/24 05:02:07;;;;;;;34.73;15.83;;;;;;;;;;5010712;28;20315;-85
2022/01/24 05:04:35;;;;;;;34.63;16.90;;;;;;;;;;5009832;28;20266;-85
2022/01/24 05:07:02;;;;;;;35.83;17.13;;;;;;;;;;5010923;28;20296;-85
2022/01/24 05:09:34;;;;;;;43.43;18.33;;;;;;;;;;5010910;28;20296;-85
2022/01/24 05:12:07;;;;;;;39.20;17.60;;;;;;;;;;5010206;28;20204;-85
2022/01/24 05:25:36;;;;;;;41.03;18.10;;;;;;;;;;4969049;28;20629;-85
2022/01/24 05:28:04;;;;;;;41.33;18.53;;;;;;;;;;4969319;28;20289;-85
2022/01/24 05:30:31;;;;;;;42.60;18.10;;;;;;;;;;4972103;28;20212;-85
2022/01/24 05:33:00;;;;;;;43.30;18.90;;;;;;;;;;4972426;28;20281;-85
2022/01/24 05:35:27;;;;;;;43.33;19.30;;;;;;;;;;4973723;28;20252;-85
2022/01/24 05:37:54;;;;;;;46.27;19.97;;;;;;;;;;4976590;28;20301;-86
2022/01/24 05:40:21;;;;;;;44.83;19.43;;;;;;;;;;4976064;28;20237;-85
2022/01/24 05:42:48;;;;;;;46.40;20.40;;;;;;;;;;4972328;28;20275;-85
2022/01/24 05:45:16;;;;;;;46.10;19.83;;;;;;;;;;4973326;28;20285;-85
2022/01/24 05:47:43;;;;;;;44.70;19.27;;;;;;;;;;4972056;28;20294;-85
2022/01/24 05:50:12;;;;;;;44.90;20.60;;;;;;;;;;4972379;28;20289;-86
2022/01/24 05:52:39;;;;;;;45.20;19.97;;;;;;;;;;4971927;28;20285;-85
2022/01/24 05:55:06;;;;;;;49.20;20.20;;;;;;;;;;5005618;28;20288;-85
2022/01/24 05:57:34;;;;;;;48.13;20.53;;;;;;;;;;5014030;28;20204;-85
2022/01/24 06:00:02;;;;;;;47.13;20.83;;;;;;;;;;5014279;28;20305;-85
2022/01/24 06:02:29;;;;;;;48.13;19.73;;;;;;;;;;4996141;28;20768;-86
2022/01/24 06:04:57;;;;;;;47.20;21.13;;;;;;;;;;5016457;28;20221;-91
2022/01/24 06:07:28;;;;;;;47.50;20.40;;;;;;;;;;5020108;28;20220;-92
2022/01/24 06:09:55;;;;;;;46.67;19.97;;;;;;;;;;5020604;28;20959;-91
2022/01/24 06:12:23;;;;;;;49.33;21.37;;;;;;;;;;5020348;28;20205;-91
2022/01/24 06:14:51;;;;;;;45.20;20.10;;;;;;;;;;5023068;28;20629;-90
2022/01/24 06:17:18;;;;;;;46.07;20.87;;;;;;;;;;5020336;28;20350;-91
2022/01/24 06:19:46;;;;;;;46.40;19.43;;;;;;;;;;5020687;28;20213;-92
2022/01/24 06:22:13;;;;;;;44.97;20.23;;;;;;;;;;5017967;28;20212;-92
2022/01/24 06:24:42;;;;;;;45.97;19.17;;;;;;;;;;5018180;28;20209;-84
2022/01/24 06:27:09;;;;;;;45.07;20.37;;;;;;;;;;5019184;28;20261;-87
2022/01/24 06:29:36;;;;;;;42.13;19.53;;;;;;;;;;5018064;28;20197;-86
2022/01/24 06:32:04;;;;;;;105.87;47.83;;;;;;;;;;5012386;28;20276;-89
2022/01/24 06:34:31;;;;;;;127.50;58.63;;;;;;;;;;5015884;28;20628;-88
2022/01/24 06:36:58;;;;;;;353.90;208.90;;;;;;;;;;5013901;28;20738;-88
2022/01/24 06:39:25;;;;;;;339.63;228.90;;;;;;;;;;5013645;28;20209;-87
2022/01/24 06:42:09;;;;;;;115.47;72.67;;;;;;;;;;5018642;28;20228;-91
2022/01/24 06:44:38;;;;;;;91.40;51.80;;;;;;;;;;5020587;28;20757;-90
2022/01/24 06:47:05;;;;;;;596.67;305.23;;;;;;;;;;5017213;28;20205;-91
2022/01/24 06:49:33;;;;;;;365.10;175.77;;;;;;;;;;5015160;28;20635;-88
2022/01/24 06:52:00;;;;;;;374.10;191.53;;;;;;;;;;5032679;28;20247;-92
2022/01/24 06:54:27;;;;;;;154.80;82.70;;;;;;;;;;5017447;28;20259;-92
2022/01/24 06:56:57;;;;;;;60.40;27.57;;;;;;;;;;5016000;28;20201;-92
2022/01/24 06:59:24;;;;;;;68.93;32.43;;;;;;;;;;5015661;28;20707;-92
2022/01/24 07:01:52;;;;;;;82.33;41.23;;;;;;;;;;5016247;28;20612;-92
2022/01/24 07:04:19;;;;;;;89.90;44.87;;;;;;;;;;5017144;28;20201;-92
2022/01/24 07:06:47;;;;;;;69.77;34.30;;;;;;;;;;5017958;28;20208;-92
2022/01/24 07:09:14;;;;;;;85.07;45.23;;;;;;;;;;5016677;28;20289;-92
2022/01/24 07:11:42;;;;;;;62.17;30.17;;;;;;;;;;5016782;28;20197;-92
2022/01/24 07:14:13;;;;;;;70.90;33.17;;;;;;;;;;5017707;28;20260;-92
2022/01/24 07:17:03;;;;;;;110.13;55.17;;;;;;;;;;5018680;28;20209;-91
2022/01/24 07:19:32;;;;;;;62.63;29.40;;;;;;;;;;5016895;28;20229;-92
2022/01/24 07:22:00;;;;;;;57.07;25.80;;;;;;;;;;5016462;28;20315;-92
2022/01/24 07:24:28;;;;;;;111.97;56.93;;;;;;;;;;5017462;28;20208;-92
2022/01/24 07:26:55;;;;;;;79.20;38.97;;;;;;;;;;5022474;28;20227;-92
2022/01/24 07:29:25;;;;;;;65.10;27.20;;;;;;;;;;5018788;28;20220;-92
2022/01/24 07:31:52;;;;;;;95.93;44.40;;;;;;;;;;5016022;28;20193;-92
2022/01/24 07:34:20;;;;;;;389.87;148.30;;;;;;;;;;5016502;28;20209;-92
2022/01/24 07:36:47;;;;;;;72.30;33.67;;;;;;;;;;5016209;28;20205;-92
2022/01/24 07:39:15;;;;;;;61.87;26.67;;;;;;;;;;5015776;28;20239;-91
2022/01/24 07:41:45;;;;;;;54.70;23.47;;;;;;;;;;5015108;28;20629;-92
2022/01/24 07:44:13;;;;;;;60.10;25.93;;;;;;;;;;5016303;28;20782;-92
2022/01/24 07:46:42;;;;;;;67.67;30.53;;;;;;;;;;5016220;28;20201;-92
2022/01/24 07:49:12;;;;;;;50.77;23.07;;;;;;;;;;5015775;28;20230;-92
2022/01/24 07:51:40;;;;;;;64.00;25.77;;;;;;;;;;5015074;28;20202;-92
2022/01/24 07:54:08;;;;;;;70.80;30.37;;;;;;;;;;5016107;28;20255;-92
2022/01/24 07:56:36;;;;;;;65.63;29.50;;;;;;;;;;5016883;28;20197;-91
2022/01/24 07:59:03;;;;;;;78.80;34.47;;;;;;;;;;5016439;28;20209;-92
2022/01/24 08:01:30;;;;;;;85.50;39.70;;;;;;;;;;5018759;28;20232;-91
2022/01/24 08:03:59;;;;;;;62.40;26.13;;;;;;;;;;5024537;28;20208;-90
2022/01/24 08:06:26;;;;;;;65.37;28.10;;;;;;;;;;5018583;28;20267;-91
2022/01/24 08:08:54;;;;;;;76.87;34.47;;;;;;;;;;5015503;28;20209;-92
2022/01/24 08:11:22;;;;;;;54.27;23.80;;;;;;;;;;5014740;28;20211;-92
2022/01/24 08:13:51;;;;;;;49.57;24.37;;;;;;;;;;5015235;28;20285;-91
2022/01/24 08:16:18;;;;;;;78.00;35.43;;;;;;;;;;5014330;28;20222;-92
2022/01/24 08:18:50;;;;;;;48.87;23.93;;;;;;;;;;5013877;28;20250;-93
2022/01/24 08:21:19;;;;;;;47.53;26.00;;;;;;;;;;5013447;28;20243;-92
2022/01/24 08:23:46;;;;;;;83.57;40.60;;;;;;;;;;5013053;28;20205;-91
2022/01/24 08:26:14;;;;;;;45.07;24.50;;;;;;;;;;5013177;28;20641;-92
2022/01/24 08:28:41;;;;;;;49.80;27.40;;;;;;;;;;5012794;28;20221;-92
2022/01/24 08:31:08;;;;;;;82.57;42.43;;;;;;;;;;5013255;28;20237;-92
2022/01/24 08:33:36;;;;;;;40.43;23.40;;;;;;;;;;5013633;28;20224;-92
2022/01/24 08:36:04;;;;;;;37.27;22.37;;;;;;;;;;5013657;28;20200;-92
2022/01/24 08:38:35;;;;;;;34.97;20.10;;;;;;;;;;5017947;28;20232;-92
2022/01/24 08:41:08;;;;;;;31.20;19.87;;;;;;;;;;5017044;28;20197;-92
2022/01/24 08:43:52;;;;;;;30.13;18.57;;;;;;;;;;5014053;28;20247;-92
2022/01/24 08:46:20;;;;;;;31.67;18.53;;;;;;;;;;5014681;28;20264;-92
2022/01/24 08:48:47;;;;;;;28.13;17.73;;;;;;;;;;5015142;28;20214;-91
2022/01/24 08:51:14;;;;;;;28.57;18.90;;;;;;;;;;5014617;28;20208;-90
2022/01/24 08:53:43;;;;;;;26.53;17.73;;;;;;;;;;5014866;28;20236;-92
2022/01/24 08:56:11;;;;;;;26.00;17.40;;;;;;;;;;5014350;28;20209;-93
2022/01/24 08:58:39;;;;;;;24.47;17.17;;;;;;;;;;5013948;28;20232;-92
2022/01/24 09:01:07;;;;;;;26.20;18.00;;;;;;;;;;5014028;28;20208;-93
2022/01/24 09:03:39;;;;;;;28.13;18.70;;;;;;;;;;5014816;28;20636;-92
2022/01/24 09:06:06;;;;;;;25.37;18.03;;;;;;;;;;5017709;28;20288;-92
2022/01/24 09:08:34;;;;;;;28.57;19.40;;;;;;;;;;5018450;28;20197;-92
2022/01/24 09:11:03;;;;;;;36.47;23.93;;;;;;;;;;5018987;28;20220;-93
2022/01/24 09:13:32;;;;;;;35.17;24.40;;;;;;;;;;5020290;28;20197;-91
2022/01/24 09:16:00;;;;;;;45.17;31.00;;;;;;;;;;5023871;28;20289;-91
2022/01/24 09:18:28;;;;;;;26.00;17.57;;;;;;;;;;5020320;28;20622;-92
2022/01/24 09:20:55;;;;;;;26.03;17.77;;;;;;;;;;5019411;28;20263;-92
2022/01/24 09:23:23;;;;;;;26.90;18.83;;;;;;;;;;5017514;28;20221;-92
2022/01/24 09:25:51;;;;;;;23.97;16.53;;;;;;;;;;5017716;28;20228;-92
2022/01/24 09:28:19;;;;;;;22.60;15.97;;;;;;;;;;5017105;28;20746;-92
2022/01/24 09:30:47;;;;;;;27.40;17.70;;;;;;;;;;5015509;28;20773;-84
2022/01/24 09:33:14;;;;;;;23.63;17.17;;;;;;;;;;5015160;28;20197;-92
2022/01/24 09:35:42;;;;;;;24.80;17.00;;;;;;;;;;5018568;28;20201;-92
2022/01/24 09:38:09;;;;;;;23.97;16.43;;;;;;;;;;5018222;28;20221;-93
2022/01/24 09:40:37;;;;;;;23.13;16.30;;;;;;;;;;5018081;28;20201;-92
2022/01/24 09:43:04;;;;;;;23.40;16.40;;;;;;;;;;5022183;28;20237;-93
2022/01/24 09:45:37;;;;;;;24.20;16.63;;;;;;;;;;5026080;28;20284;-92
2022/01/24 09:48:05;;;;;;;23.83;15.83;;;;;;;;;;5015357;28;20213;-86
2022/01/24 09:50:32;;;;;;;23.83;15.87;;;;;;;;;;5016812;28;20209;-92
2022/01/24 09:53:01;;;;;;;23.63;15.97;;;;;;;;;;5019535;28;20201;-87
2022/01/24 09:55:28;;;;;;;22.63;15.20;;;;;;;;;;5015244;28;20236;-93
2022/01/24 09:57:56;;;;;;;21.30;15.27;;;;;;;;;;5016647;28;20634;-93
2022/01/24 10:00:24;;;;;;;24.53;16.63;;;;;;;;;;5016255;28;20209;-93
2022/01/24 10:02:53;;;;;;;23.03;16.03;;;;;;;;;;5016286;28;20229;-93
2022/01/24 10:05:22;;;;;;;21.87;15.23;;;;;;;;;;5016283;28;20209;-91
2022/01/24 10:07:53;;;;;;;23.17;15.90;;;;;;;;;;5016262;28;20287;-93
2022/01/24 10:10:34;;;;;;;22.17;15.53;;;;;;;;;;5016290;28;20227;-93
2022/01/24 10:16:29;;;;;;;22.73;15.07;;;;;;;;;;4998115;28;20196;-93
2022/01/24 10:19:01;;;;;;;22.73;15.10;;;;;;;;;;4997323;28;20208;-93
2022/01/24 10:21:32;;;;;;;24.13;15.30;;;;;;;;;;4997772;28;20213;-93
2022/01/24 10:23:59;;;;;;;24.87;16.30;;;;;;;;;;4997486;28;20755;-86
2022/01/24 10:26:29;;;;;;;20.43;14.40;;;;;;;;;;4994467;28;20194;-85
2022/01/24 10:28:56;;;;;;;21.40;14.37;;;;;;;;;;5009504;28;20228;-86
2022/01/24 10:31:28;;;;;;;22.70;15.20;;;;;;;;;;5015108;28;20205;-93
2022/01/24 10:34:00;;;;;;;20.20;14.47;;;;;;;;;;5016430;28;20201;-93
2022/01/24 10:36:34;;;;;;;20.60;14.47;;;;;;;;;;5016823;28;20267;-93
2022/01/24 10:39:12;;;;;;;20.77;14.17;;;;;;;;;;5016726;28;20213;-93
2022/01/24 10:44:35;;;;;;;19.03;13.03;;;;;;;;;;4975336;28;20234;-94
2022/01/24 10:47:16;;;;;;;18.53;13.23;;;;;;;;;;4975331;28;20284;-93
2022/01/24 10:49:44;;;;;;;19.20;13.37;;;;;;;;;;4971450;28;20210;-86
2022/01/24 10:52:13;;;;;;;17.77;13.93;;;;;;;;;;4972284;28;20213;-86
2022/01/24 10:54:41;;;;;;;18.10;13.30;;;;;;;;;;4972424;28;20214;-86
2022/01/24 10:57:20;;;;;;;21.67;13.77;;;;;;;;;;4975258;28;20242;-93
2022/01/24 10:59:48;;;;;;;19.37;13.07;;;;;;;;;;4973360;28;20210;-86
2022/01/24 11:02:22;;;;;;;19.67;13.23;;;;;;;;;;4973647;28;20206;-94
2022/01/24 11:04:51;;;;;;;18.50;12.93;;;;;;;;;;4975730;28;20197;-86
2022/01/24 11:07:23;;;;;;;18.70;13.03;;;;;;;;;;4972386;28;20282;-86
2022/01/24 11:09:50;;;;;;;17.73;12.80;;;;;;;;;;4972078;28;20228;-86
2022/01/24 11:12:22;;;;;;;20.13;12.90;;;;;;;;;;4972150;28;20214;-86
2022/01/24 11:14:51;;;;;;;19.17;13.70;;;;;;;;;;4971888;28;20202;-86
2022/01/24 11:17:20;;;;;;;19.60;13.67;;;;;;;;;;4972671;28;20209;-86
2022/01/24 11:19:55;;;;;;;19.83;13.70;;;;;;;;;;4984049;28;20251;-86
2022/01/24 11:22:27;;;;;;;18.43;13.33;;;;;;;;;;5013142;28;20204;-86
2022/01/24 11:24:58;;;;;;;20.13;14.00;;;;;;;;;;5012809;28;20212;-86
2022/01/24 11:27:25;;;;;;;18.33;13.13;;;;;;;;;;5012590;28;20237;-86
2022/01/24 11:29:54;;;;;;;18.07;12.90;;;;;;;;;;5012769;28;20193;-87
2022/01/24 11:32:26;;;;;;;18.30;13.77;;;;;;;;;;5013048;28;20268;-86
2022/01/24 11:34:54;;;;;;;19.33;13.27;;;;;;;;;;5012796;28;20247;-86
2022/01/24 11:37:37;;;;;;;18.07;13.23;;;;;;;;;;5012970;28;20669;-86
2022/01/24 11:40:05;;;;;;;18.57;13.07;;;;;;;;;;5012366;28;20224;-86
2022/01/24 11:42:35;;;;;;;19.80;13.43;;;;;;;;;;5012418;28;20252;-86
2022/01/24 11:45:05;;;;;;;18.97;13.40;;;;;;;;;;5011957;28;20229;-86
2022/01/24 11:47:33;;;;;;;17.57;13.37;;;;;;;;;;5012529;28;20268;-86
2022/01/24 11:50:00;;;;;;;17.87;13.37;;;;;;;;;;5011489;28;20201;-87
2022/01/24 11:52:32;;;;;;;17.43;12.63;;;;;;;;;;5012719;28;20236;-87
2022/01/24 11:55:14;;;;;;;18.77;12.83;;;;;;;;;;5013005;28;20228;-87
2022/01/24 11:57:44;;;;;;;19.07;13.83;;;;;;;;;;5013248;28;20295;-87
2022/01/24 12:00:16;;;;;;;19.20;14.00;;;;;;;;;;5012611;28;20579;-87
2022/01/24 12:02:44;;;;;;;19.87;13.57;;;;;;;;;;5012898;28;20252;-87
2022/01/24 12:05:13;;;;;;;18.27;13.07;;;;;;;;;;5013209;28;20271;-87
2022/01/24 12:07:44;;;;;;;18.20;12.97;;;;;;;;;;5013685;28;20209;-87
2022/01/24 12:10:34;;;;;;;16.80;12.67;;;;;;;;;;5012951;28;20284;-87
2022/01/24 12:13:04;;;;;;;18.00;12.67;;;;;;;;;;5012607;28;20205;-86
2022/01/24 12:15:54;;;;;;;17.83;12.53;;;;;;;;;;5013123;28;20193;-86
2022/01/24 12:18:24;;;;;;;16.83;12.77;;;;;;;;;;5012925;28;20205;-87
2022/01/24 12:20:52;;;;;;;18.60;12.53;;;;;;;;;;5012772;28;20232;-87
2022/01/24 12:23:33;;;;;;;23.20;13.30;;;;;;;;;;5012245;28;20228;-87
2022/01/24 12:26:02;;;;;;;18.43;12.67;;;;;;;;;;5012526;28;20189;-86
2022/01/24 12:28:32;;;;;;;17.57;12.53;;;;;;;;;;5012108;28;20199;-87
2022/01/24 12:31:01;;;;;;;21.17;13.10;;;;;;;;;;5012852;28;20255;-87
2022/01/24 12:33:32;;;;;;;17.30;13.23;;;;;;;;;;5012111;28;20735;-87
2022/01/24 12:36:00;;;;;;;18.87;13.07;;;;;;;;;;5012681;28;20227;-87
2022/01/24 12:38:27;;;;;;;17.10;12.37;;;;;;;;;;5011123;28;20193;-87
2022/01/24 12:41:13;;;;;;;15.33;11.47;;;;;;;;;;5012816;28;20653;-87
2022/01/24 12:43:53;;;;;;;16.10;12.07;;;;;;;;;;5013323;28;20239;-87
2022/01/24 12:46:21;;;;;;;19.97;12.63;;;;;;;;;;5012388;28;20291;-87
2022/01/24 12:48:49;;;;;;;16.37;11.83;;;;;;;;;;5011936;28;20212;-87
2022/01/24 12:51:16;;;;;;;16.77;11.70;;;;;;;;;;5012281;28;20213;-87
2022/01/24 12:53:44;;;;;;;18.67;12.67;;;;;;;;;;5012724;28;20205;-86
2022/01/24 12:56:13;;;;;;;19.50;12.30;;;;;;;;;;5014053;28;20209;-93
2022/01/24 12:58:43;;;;;;;17.77;12.97;;;;;;;;;;5016915;28;20205;-94
2022/01/24 13:01:21;;;;;;;18.57;12.43;;;;;;;;;;5015953;28;20232;-93
2022/01/24 13:03:49;;;;;;;20.10;13.40;;;;;;;;;;5017136;28;20221;-93
2022/01/24 13:06:16;;;;;;;19.40;13.70;;;;;;;;;;5019160;28;20227;-94
2022/01/24 13:08:52;;;;;;;28.30;17.87;;;;;;;;;;5018901;28;20201;-93
2022/01/24 13:11:20;;;;;;;23.87;15.40;;;;;;;;;;5019532;28;20243;-93
2022/01/24 13:14:02;;;;;;;19.50;13.37;;;;;;;;;;5022191;28;20201;-93
2022/01/24 13:22:25;;;;;;;23.97;13.73;;;;;;;;;;5019347;28;20189;-94
2022/01/24 13:25:03;;;;;;;19.77;14.47;;;;;;;;;;5025683;28;20232;-94
2022/01/24 13:27:37;;;;;;;23.03;17.03;;;;;;;;;;5022521;28;20204;-94
2022/01/24 13:30:07;;;;;;;21.23;14.73;;;;;;;;;;5017282;28;20205;-94
2022/01/24 13:32:46;;;;;;;18.37;13.37;;;;;;;;;;5015076;28;20267;-94
2022/01/24 13:35:17;;;;;;;17.97;12.57;;;;;;;;;;5015936;28;20204;-94
2022/01/24 13:37:45;;;;;;;19.57;14.00;;;;;;;;;;5016026;28;20201;-94
2022/01/24 13:40:13;;;;;;;20.73;15.63;;;;;;;;;;5016442;28;20209;-94
2022/01/24 13:42:40;;;;;;;28.60;19.57;;;;;;;;;;5020577;28;20284;-93
2022/01/24 13:45:10;;;;;;;26.73;18.27;;;;;;;;;;5020863;28;20233;-94
2022/01/24 13:47:38;;;;;;;21.87;14.17;;;;;;;;;;5018734;28;20205;-94
2022/01/24 13:50:08;;;;;;;31.03;21.53;;;;;;;;;;5020952;28;20205;-94
2022/01/24 13:52:35;;;;;;;34.53;22.07;;;;;;;;;;5018233;28;20205;-88
2022/01/24 13:55:15;;;;;;;25.57;17.83;;;;;;;;;;5015286;28;20714;-88
2022/01/24 13:57:47;;;;;;;22.83;13.83;;;;;;;;;;5015137;28;20224;-88
2022/01/24 14:00:17;;;;;;;20.60;15.20;;;;;;;;;;5015265;28;20225;-88
2022/01/24 14:02:44;;;;;;;15.57;12.07;;;;;;;;;;5014942;28;20224;-88
2022/01/24 14:05:12;;;;;;;20.33;12.67;;;;;;;;;;5014914;28;20224;-88
2022/01/24 14:07:43;;;;;;;19.30;12.83;;;;;;;;;;5015076;28;20216;-88
2022/01/24 14:10:11;;;;;;;17.67;12.30;;;;;;;;;;5014972;28;20193;-87
2022/01/24 14:12:51;;;;;;;19.87;12.70;;;;;;;;;;5014340;28;20259;-88
2022/01/24 14:15:25;;;;;;;17.53;12.40;;;;;;;;;;5014939;28;20251;-88
2022/01/24 14:18:22;;;;;;;16.67;12.47;;;;;;;;;;5014350;28;20192;-88
2022/01/24 14:20:51;;;;;;;18.70;12.83;;;;;;;;;;5014674;28;20213;-88
2022/01/24 14:23:23;;;;;;;17.90;12.47;;;;;;;;;;5015040;28;20209;-88
2022/01/24 14:25:50;;;;;;;18.70;12.50;;;;;;;;;;5014606;28;20190;-88
2022/01/24 14:28:18;;;;;;;19.50;13.30;;;;;;;;;;5016059;28;20308;-88
2022/01/24 14:30:48;;;;;;;17.83;12.07;;;;;;;;;;5015788;28;20654;-88
2022/01/24 14:33:16;;;;;;;18.10;13.33;;;;;;;;;;5014916;28;20197;-87
2022/01/24 14:35:50;;;;;;;18.40;13.37;;;;;;;;;;5014459;28;20212;-87
2022/01/24 14:38:35;;;;;;;17.93;12.53;;;;;;;;;;5014544;28;20258;-88
2022/01/24 14:41:05;;;;;;;17.50;12.33;;;;;;;;;;5014526;28;20205;-88
2022/01/24 14:46:20;;;;;;;17.80;12.47;;;;;;;;;;5014112;28;20205;-88
2022/01/24 14:48:49;;;;;;;18.30;12.27;;;;;;;;;;5014274;28;20209;-87
2022/01/24 14:51:17;;;;;;;30.27;13.70;;;;;;;;;;5014277;28;20665;-88
2022/01/24 14:53:45;;;;;;;18.77;12.57;;;;;;;;;;5014025;28;20360;-88
2022/01/24 14:56:15;;;;;;;19.17;12.90;;;;;;;;;;5014969;28;20209;-88
2022/01/24 14:58:43;;;;;;;18.20;13.03;;;;;;;;;;5013887;28;20232;-87
2022/01/24 15:01:11;;;;;;;20.07;12.80;;;;;;;;;;5012785;28;20193;-87
2022/01/24 15:03:40;;;;;;;18.50;12.73;;;;;;;;;;5013962;28;20263;-87
2022/01/24 15:06:08;;;;;;;18.90;13.43;;;;;;;;;;5012371;28;20204;-87
2022/01/24 15:08:35;;;;;;;18.57;12.37;;;;;;;;;;5014343;28;20201;-87
2022/01/24 15:11:03;;;;;;;18.37;12.93;;;;;;;;;;5013950;28;20229;-87
2022/01/24 15:13:37;;;;;;;20.97;13.83;;;;;;;;;;5013570;28;20685;-87
2022/01/24 15:16:15;;;;;;;18.87;13.37;;;;;;;;;;5013425;28;20672;-87
2022/01/24 15:27:02;;;;;;;20.03;13.43;;;;;;;;;;5010379;28;20196;-87
2022/01/24 15:29:30;;;;;;;21.50;14.30;;;;;;;;;;5013586;28;20240;-87
2022/01/24 15:32:02;;;;;;;19.10;13.47;;;;;;;;;;5013459;28;20205;-86
2022/01/24 15:34:31;;;;;;;20.53;13.23;;;;;;;;;;5013371;28;20682;-86
2022/01/24 15:36:59;;;;;;;19.73;13.67;;;;;;;;;;5012876;28;20656;-86
2022/01/24 15:39:26;;;;;;;22.50;13.53;;;;;;;;;;5013225;28;20223;-87
2022/01/24 15:41:56;;;;;;;20.13;13.27;;;;;;;;;;5012960;28;20265;-87
2022/01/24 15:44:49;;;;;;;22.70;14.33;;;;;;;;;;5012762;28;20264;-87
2022/01/24 15:50:00;;;;;;;21.03;14.00;;;;;;;;;;4992513;28;20205;-86
2022/01/24 15:52:27;;;;;;;20.37;13.27;;;;;;;;;;4993620;28;20684;-86
2022/01/24 15:54:55;;;;;;;19.27;12.80;;;;;;;;;;4993770;28;20256;-86
2022/01/24 15:57:41;;;;;;;20.67;13.47;;;;;;;;;;4998133;28;20201;-86
2022/01/24 16:00:10;;;;;;;22.30;14.67;;;;;;;;;;5012793;28;20211;-86
2022/01/24 16:02:38;;;;;;;22.47;14.10;;;;;;;;;;5012579;28;20219;-86
2022/01/24 16:05:07;;;;;;;23.17;14.10;;;;;;;;;;5012249;28;20247;-86
2022/01/24 16:07:36;;;;;;;22.00;13.77;;;;;;;;;;5012857;28;20207;-86
2022/01/24 16:10:03;;;;;;;20.93;13.77;;;;;;;;;;5012549;28;20294;-86